createdAt,value
2023-05-12T00:01:26.428Z,64.71
2023-05-12T00:05:26.519Z,64.82
2023-05-12T00:09:26.845Z,64.84
2023-05-12T00:13:27.979Z,65.07
2023-05-12T00:17:26.887Z,64.95
2023-05-12T00:21:26.481Z,65.26
2023-05-12T00:25:26.498Z,65.41
2023-05-12T00:29:26.667Z,65.37
2023-05-12T00:33:26.690Z,65.53
2023-05-12T00:37:27.484Z,65.71
2023-05-12T00:41:27.456Z,65.95
2023-05-12T00:45:28.617Z,65.96
2023-05-12T00:49:26.811Z,65.61
2023-05-12T00:53:32.681Z,65.94
2023-05-12T00:57:26.915Z,66.03
2023-05-12T01:01:26.654Z,66.15
2023-05-12T01:05:31.038Z,66.19
2023-05-12T01:09:26.675Z,66.82
2023-05-12T01:13:27.025Z,67.64
2023-05-12T01:17:31.401Z,68.61
2023-05-12T01:21:26.625Z,68.85
2023-05-12T01:25:31.176Z,69.05
2023-05-12T01:29:27.683Z,69.64
2023-05-12T01:33:28.106Z,70.27
2023-05-12T01:37:27.047Z,70.67
2023-05-12T01:41:26.740Z,70.53
2023-05-12T01:45:27.168Z,70.68
2023-05-12T01:49:26.677Z,70.42
2023-05-12T01:53:26.687Z,70.66
2023-05-12T01:57:26.860Z,70.37
2023-05-12T02:01:27.853Z,70.46
2023-05-12T02:05:26.698Z,70.90
2023-05-12T02:09:26.841Z,70.39
2023-05-12T02:17:27.831Z,70.24
2023-05-12T02:21:27.055Z,69.68
2023-05-12T02:25:26.907Z,69.15
2023-05-12T02:29:26.833Z,69.00
2023-05-12T02:33:26.880Z,68.88
2023-05-12T02:37:26.723Z,69.27
2023-05-12T02:41:26.948Z,68.94
2023-05-12T02:45:27.412Z,68.97
2023-05-12T02:49:26.972Z,69.08
2023-05-12T02:53:27.485Z,68.26
2023-05-12T02:57:31.983Z,68.25
2023-05-12T03:01:26.851Z,68.45
2023-05-12T03:05:27.088Z,68.28
2023-05-12T03:09:26.833Z,68.16
2023-05-12T03:13:27.290Z,68.22
2023-05-12T03:17:26.922Z,67.88
2023-05-12T03:21:27.656Z,67.79
2023-05-12T03:29:27.178Z,67.82
2023-05-12T03:33:27.235Z,67.67
2023-05-12T03:37:27.069Z,67.84
2023-05-12T03:41:27.199Z,67.78
2023-05-12T03:45:27.334Z,68.00
2023-05-12T03:49:27.046Z,67.92
2023-05-12T03:53:27.034Z,67.96
2023-05-12T03:57:27.706Z,67.81
2023-05-12T04:01:27.179Z,67.93
2023-05-12T04:05:27.025Z,67.60
2023-05-12T04:09:27.298Z,67.76
2023-05-12T04:13:27.684Z,67.91
2023-05-12T04:17:27.346Z,68.28
2023-05-12T04:21:27.013Z,68.44
2023-05-12T04:25:27.140Z,68.51
2023-05-12T04:29:27.604Z,68.05
2023-05-12T04:33:27.219Z,68.95
2023-05-12T04:37:27.266Z,68.96
2023-05-12T04:45:27.269Z,69.25
2023-05-12T04:53:27.876Z,69.26
2023-05-12T04:57:27.226Z,68.65
2023-05-12T05:01:27.451Z,69.24
2023-05-12T05:05:27.269Z,69.47
2023-05-12T05:09:27.293Z,69.28
2023-05-12T05:13:27.322Z,69.59
2023-05-12T05:17:27.665Z,69.85
2023-05-12T05:21:27.324Z,69.73
2023-05-12T05:25:27.426Z,69.25
2023-05-12T05:29:27.794Z,69.93
2023-05-12T05:33:27.290Z,69.29
2023-05-12T05:37:27.438Z,69.21
2023-05-12T05:41:27.441Z,70.43
2023-05-12T05:45:28.170Z,70.07
2023-05-12T05:49:27.377Z,70.33
2023-05-12T05:53:27.863Z,70.30
2023-05-12T05:57:27.520Z,69.97
2023-05-12T06:01:27.481Z,70.65
2023-05-12T06:05:27.446Z,69.88
2023-05-12T06:09:27.407Z,70.60
2023-05-12T06:13:27.449Z,70.38
2023-05-12T06:17:27.455Z,70.19
2023-05-12T06:21:27.396Z,69.49
2023-05-12T06:25:27.499Z,70.22
2023-05-12T06:29:27.421Z,70.15
2023-05-12T06:33:27.460Z,69.42
2023-05-12T06:37:27.547Z,69.42
2023-05-12T06:41:27.449Z,69.59
2023-05-12T06:45:27.515Z,69.19
2023-05-12T06:49:27.641Z,69.19
2023-05-12T06:53:27.562Z,69.11
2023-05-12T06:57:27.792Z,68.09
2023-05-12T07:01:28.192Z,68.26
2023-05-12T07:05:27.671Z,68.54
2023-05-12T07:09:27.535Z,68.05
2023-05-12T07:13:27.636Z,68.67
2023-05-12T07:17:28.022Z,68.90
2023-05-12T07:21:28.518Z,68.99
2023-05-12T07:25:28.134Z,68.49
2023-05-12T07:29:27.901Z,68.87
2023-05-12T07:33:27.801Z,68.63
2023-05-12T07:37:27.719Z,68.55
2023-05-12T07:41:27.676Z,67.96
2023-05-12T07:45:27.835Z,68.49
2023-05-12T07:49:27.644Z,67.99
2023-05-12T07:53:27.914Z,67.60
2023-05-12T07:57:27.696Z,67.63
2023-05-12T08:01:27.928Z,67.47
2023-05-12T08:05:30.994Z,67.14
2023-05-12T08:09:28.853Z,67.02
2023-05-12T08:13:28.157Z,66.94
2023-05-12T08:17:29.292Z,66.87
2023-05-12T08:21:28.604Z,67.48
2023-05-12T08:25:29.401Z,66.86
2023-05-12T08:29:28.015Z,66.40
2023-05-12T08:33:27.997Z,66.40
2023-05-12T08:37:28.052Z,66.54
2023-05-12T08:41:38.706Z,66.59
2023-05-12T08:45:28.505Z,66.81
2023-05-12T08:49:31.384Z,66.88
2023-05-12T08:53:28.599Z,66.88
2023-05-12T08:57:29.563Z,66.75
2023-05-12T09:01:29.257Z,66.84
2023-05-12T09:05:29.763Z,66.91
2023-05-12T09:09:29.569Z,66.86
2023-05-12T09:13:35.271Z,67.04
2023-05-12T09:17:28.002Z,67.75
2023-05-12T09:21:28.240Z,67.01
2023-05-12T09:29:31.835Z,66.87
2023-05-12T09:33:34.164Z,66.63
2023-05-12T09:37:30.542Z,66.87
2023-05-12T09:41:28.106Z,66.40
2023-05-12T09:45:28.111Z,66.60
2023-05-12T09:49:27.936Z,66.14
2023-05-12T09:53:28.206Z,65.76
2023-05-12T09:57:29.000Z,65.63
2023-05-12T10:01:28.726Z,65.47
2023-05-12T10:05:30.670Z,65.72
2023-05-12T10:09:33.021Z,66.11
2023-05-12T10:13:28.513Z,66.07
2023-05-12T10:17:30.084Z,66.27
2023-05-12T10:21:28.210Z,66.26
2023-05-12T10:25:29.701Z,67.13
2023-05-12T10:29:30.663Z,67.15
2023-05-12T10:33:28.236Z,67.67
2023-05-12T10:37:28.338Z,68.50
2023-05-12T10:41:29.991Z,67.72
2023-05-12T10:45:34.747Z,69.16
2023-05-12T10:49:31.952Z,68.38
2023-05-12T10:53:45.176Z,68.36
2023-05-12T10:57:29.868Z,68.33
2023-05-12T11:01:28.892Z,68.77
2023-05-12T11:05:33.493Z,69.16
2023-05-12T11:09:29.350Z,69.87
2023-05-12T11:13:28.625Z,70.31
2023-05-12T11:17:28.737Z,69.36
2023-05-12T11:21:29.241Z,69.91
2023-05-12T11:25:28.344Z,70.34
2023-05-12T11:29:28.605Z,70.41
2023-05-12T11:41:28.439Z,70.48
2023-05-12T11:45:29.406Z,70.79
2023-05-12T11:49:30.844Z,71.23
2023-05-12T11:53:28.378Z,71.22
2023-05-12T11:57:30.682Z,71.84
2023-05-12T12:01:28.473Z,71.79
2023-05-12T12:05:28.436Z,72.17
2023-05-12T12:09:30.810Z,72.66
2023-05-12T12:13:28.449Z,72.50
2023-05-12T12:17:30.259Z,72.29
2023-05-12T12:21:28.401Z,72.45
2023-05-12T12:25:28.478Z,72.25
2023-05-12T12:29:28.470Z,71.95
2023-05-12T12:33:28.453Z,72.58
2023-05-12T12:37:28.460Z,72.94
2023-05-12T12:41:28.577Z,72.91
2023-05-12T12:45:28.630Z,73.43
2023-05-12T12:49:28.748Z,73.37
2023-05-12T12:53:28.531Z,72.68
2023-05-12T12:57:28.556Z,73.07
2023-05-12T13:01:28.698Z,72.45
2023-05-12T13:05:28.590Z,72.76
2023-05-12T13:09:28.590Z,72.37
2023-05-12T13:13:28.792Z,72.73
2023-05-12T13:17:28.679Z,73.04
2023-05-12T13:21:29.218Z,73.80
2023-05-12T13:25:28.735Z,74.18
2023-05-12T13:29:28.900Z,73.82
2023-05-12T13:33:28.993Z,73.36
2023-05-12T13:37:28.806Z,73.50
2023-05-12T13:45:28.849Z,73.62
2023-05-12T13:49:28.929Z,73.34
2023-05-12T13:53:28.929Z,73.89
2023-05-12T13:57:28.682Z,73.01
2023-05-12T14:01:30.121Z,73.00
2023-05-12T14:05:28.764Z,73.46
2023-05-12T14:09:28.824Z,74.02
2023-05-12T14:13:29.239Z,73.43
2023-05-12T14:17:28.867Z,73.31
2023-05-12T14:21:28.746Z,73.70
2023-05-12T14:25:29.771Z,73.33
2023-05-12T14:29:28.767Z,73.54
2023-05-12T14:37:28.968Z,73.97
2023-05-12T14:41:28.881Z,74.21
2023-05-12T14:45:30.508Z,73.22
2023-05-12T14:49:28.829Z,73.23
2023-05-12T14:53:29.242Z,74.02
2023-05-12T15:01:29.364Z,73.95
2023-05-12T15:05:41.255Z,73.99
2023-05-12T15:13:29.209Z,73.63
2023-05-12T15:17:29.630Z,73.73
2023-05-12T15:21:29.280Z,73.72
2023-05-12T15:25:29.235Z,73.26
2023-05-12T15:29:31.431Z,73.70
2023-05-12T15:33:30.432Z,73.38
2023-05-12T15:37:29.161Z,73.61
2023-05-12T15:41:29.282Z,73.64
2023-05-12T15:45:30.374Z,73.70
2023-05-12T15:49:29.007Z,74.22
2023-05-12T15:53:29.623Z,74.02
2023-05-12T15:57:29.084Z,74.21
2023-05-12T16:01:29.177Z,73.91
2023-05-12T16:05:33.747Z,73.51
2023-05-12T16:09:29.084Z,73.63
2023-05-12T16:13:29.608Z,73.60
2023-05-12T16:17:29.367Z,73.40
2023-05-12T16:21:29.061Z,73.36
2023-05-12T16:25:29.219Z,73.55
2023-05-12T16:33:29.338Z,73.43
2023-05-12T16:37:29.096Z,73.34
2023-05-12T16:41:29.172Z,73.81
2023-05-12T16:45:29.502Z,74.09
2023-05-12T16:49:29.345Z,73.70
2023-05-12T16:53:29.398Z,74.00
2023-05-12T16:57:29.989Z,74.91
2023-05-12T17:01:30.613Z,74.46
2023-05-12T17:05:29.503Z,74.23
2023-05-12T17:09:29.259Z,74.14
2023-05-12T17:13:29.660Z,74.48
2023-05-12T17:17:29.233Z,74.07
2023-05-12T17:21:29.839Z,74.20
2023-05-12T17:25:30.347Z,74.36
2023-05-12T17:29:29.336Z,74.48
2023-05-12T17:33:29.220Z,74.59
2023-05-12T17:37:30.231Z,74.64
2023-05-12T17:41:29.506Z,74.34
2023-05-12T17:45:29.370Z,74.62
2023-05-12T17:49:29.382Z,74.57
2023-05-12T17:53:30.167Z,74.50
2023-05-12T17:57:29.492Z,74.59
2023-05-12T18:01:29.518Z,74.53
2023-05-12T18:05:29.594Z,74.63
2023-05-12T18:09:29.557Z,74.98
2023-05-12T18:13:29.946Z,74.58
2023-05-12T18:17:30.079Z,74.94
2023-05-12T18:25:29.621Z,75.19
2023-05-12T18:29:29.769Z,74.75
2023-05-12T18:33:29.458Z,75.04
2023-05-12T18:37:29.434Z,74.96
2023-05-12T18:45:29.659Z,75.14
2023-05-12T18:53:29.681Z,74.96
2023-05-12T18:57:29.599Z,75.57
2023-05-12T19:01:29.709Z,75.33
2023-05-12T19:05:29.903Z,75.07
2023-05-12T19:09:29.664Z,75.08
2023-05-12T19:13:29.673Z,75.36
2023-05-12T19:21:31.411Z,75.33
2023-05-12T19:25:29.552Z,75.00
2023-05-12T19:29:29.793Z,75.44
2023-05-12T19:37:29.835Z,75.24
2023-05-12T19:41:29.858Z,75.48
2023-05-12T19:49:32.220Z,75.48
2023-05-12T19:53:29.657Z,75.51
2023-05-12T19:57:29.850Z,75.51
2023-05-12T20:01:29.960Z,75.83
2023-05-12T20:05:30.255Z,75.91
2023-05-12T20:09:29.792Z,75.67
2023-05-12T20:17:30.099Z,75.75
2023-05-12T20:21:30.395Z,75.76
2023-05-12T20:29:30.047Z,75.76
2023-05-12T20:33:29.780Z,76.01
2023-05-12T20:37:30.698Z,76.29
2023-05-12T20:41:30.236Z,76.24
2023-05-12T20:45:30.013Z,76.16
2023-05-12T20:49:29.876Z,76.33
2023-05-12T20:53:30.052Z,76.61
2023-05-12T21:01:30.813Z,76.32
2023-05-12T21:05:29.949Z,76.07
2023-05-12T21:09:30.283Z,76.27
2023-05-12T21:13:29.964Z,76.22
2023-05-12T21:21:30.665Z,76.50
2023-05-12T21:25:29.984Z,76.37
2023-05-12T21:29:30.662Z,76.45
2023-05-12T21:33:29.957Z,76.14
2023-05-12T21:37:30.239Z,76.55
2023-05-12T21:45:30.153Z,76.67
2023-05-12T21:49:30.003Z,76.53
2023-05-12T21:53:30.511Z,76.45
2023-05-12T21:57:30.033Z,76.66
2023-05-12T22:01:30.552Z,76.56
2023-05-12T22:05:30.918Z,76.62
2023-05-12T22:09:31.261Z,76.83
2023-05-12T22:13:30.218Z,76.55
2023-05-12T22:17:30.616Z,76.59
2023-05-12T22:25:30.269Z,76.59
2023-05-12T22:29:30.066Z,76.31
2023-05-12T22:33:30.727Z,76.42
2023-05-12T22:37:30.969Z,76.23
2023-05-12T22:45:30.231Z,76.41
2023-05-12T22:49:30.155Z,76.23
2023-05-12T22:53:30.364Z,76.25
2023-05-12T22:57:30.270Z,76.42
2023-05-12T23:01:30.461Z,76.37
2023-05-12T23:09:30.319Z,76.83
2023-05-12T23:13:30.296Z,76.93
2023-05-12T23:17:30.409Z,76.63
2023-05-12T23:21:30.603Z,76.58
2023-05-12T23:25:30.753Z,76.72
2023-05-12T23:29:30.226Z,76.62
2023-05-12T23:33:30.875Z,76.46
2023-05-12T23:37:30.465Z,76.27
2023-05-12T23:41:30.726Z,76.44
2023-05-12T23:45:30.302Z,76.38
2023-05-12T23:49:30.419Z,76.38
2023-05-12T23:53:30.317Z,76.38
2023-05-12T23:57:30.614Z,76.15
